createdAt,value
2023-03-12T00:01:19.291Z,97769.16
2023-03-12T00:03:45.967Z,97770.72
2023-03-12T00:06:12.525Z,97772.13
2023-03-12T00:08:39.412Z,97772.66
2023-03-12T00:11:07.637Z,97768.31
2023-03-12T00:13:34.208Z,97774.72
2023-03-12T00:16:08.512Z,97775.94
2023-03-12T00:18:35.055Z,97774.88
2023-03-12T00:21:01.865Z,97778.09
2023-03-12T00:23:28.509Z,97777.00
2023-03-12T00:25:54.998Z,97777.56
2023-03-12T00:28:21.482Z,97780.81
2023-03-12T00:30:47.929Z,97773.06
2023-03-12T00:33:14.437Z,97767.25
2023-03-12T00:35:40.937Z,97780.50
2023-03-12T00:38:07.433Z,97771.84
2023-03-12T00:40:34.084Z,97773.91
2023-03-12T00:43:00.643Z,97768.19
2023-03-12T00:45:27.148Z,97763.00
2023-03-12T00:47:53.688Z,97767.78
2023-03-12T00:50:20.157Z,97771.31
2023-03-12T00:52:46.615Z,97769.38
2023-03-12T00:55:13.177Z,97758.75
2023-03-12T00:57:39.650Z,97760.50
2023-03-12T01:00:12.482Z,97752.91
2023-03-12T01:02:39.131Z,97756.75
2023-03-12T01:05:06.588Z,97759.59
2023-03-12T01:07:33.045Z,97757.31
2023-03-12T01:09:59.501Z,97751.31
2023-03-12T01:12:25.957Z,97743.97
2023-03-12T01:14:52.712Z,97753.44
2023-03-12T01:17:19.178Z,97747.19
2023-03-12T01:19:45.705Z,97746.66
2023-03-12T01:22:12.178Z,97745.47
2023-03-12T01:24:38.649Z,97745.19
2023-03-12T01:27:05.113Z,97749.38
2023-03-12T01:29:31.844Z,97748.09
2023-03-12T01:31:58.400Z,97741.56
2023-03-12T01:34:24.917Z,97747.09
2023-03-12T01:36:51.425Z,97743.69
2023-03-12T01:39:17.878Z,97735.50
2023-03-12T01:41:44.362Z,97730.38
2023-03-12T01:44:13.838Z,97734.25
2023-03-12T01:46:43.198Z,97732.25
2023-03-12T01:49:17.595Z,97738.66
2023-03-12T01:51:56.884Z,97726.84
2023-03-12T01:54:43.112Z,97721.13
2023-03-12T01:57:15.681Z,97732.41
2023-03-12T01:59:46.947Z,97724.19
2023-03-12T02:02:14.740Z,97712.97
2023-03-12T02:04:41.215Z,97723.06
2023-03-12T02:07:11.961Z,97714.22
2023-03-12T02:09:43.245Z,97716.53
2023-03-12T02:12:09.872Z,97709.53
2023-03-12T02:14:36.517Z,97710.31
2023-03-12T02:17:03.211Z,97702.81
2023-03-12T02:19:48.696Z,97707.25
2023-03-12T02:22:15.279Z,97706.34
2023-03-12T02:25:03.868Z,97708.22
2023-03-12T02:27:32.419Z,97713.34
2023-03-12T02:29:58.920Z,97703.06
2023-03-12T02:32:27.216Z,97698.88
2023-03-12T02:34:53.698Z,97704.59
2023-03-12T02:37:20.248Z,97697.59
2023-03-12T02:39:50.174Z,97699.97
2023-03-12T02:42:16.626Z,97690.97
2023-03-12T02:44:43.811Z,97697.00
2023-03-12T02:47:10.305Z,97691.69
2023-03-12T02:49:36.797Z,97692.88
2023-03-12T02:52:03.416Z,97683.66
2023-03-12T02:54:30.003Z,97692.88
2023-03-12T02:56:56.585Z,97690.63
2023-03-12T02:59:25.943Z,97691.06
2023-03-12T03:01:56.703Z,97681.94
2023-03-12T03:04:23.364Z,97682.63
2023-03-12T03:06:49.843Z,97680.03
2023-03-12T03:09:16.337Z,97688.69
2023-03-12T03:11:42.838Z,97682.72
2023-03-12T03:14:10.146Z,97677.22
2023-03-12T03:16:36.628Z,97679.59
2023-03-12T03:19:03.196Z,97681.50
2023-03-12T03:21:29.665Z,97689.25
2023-03-12T03:23:56.151Z,97692.00
2023-03-12T03:26:22.908Z,97681.38
2023-03-12T03:28:49.640Z,97685.25
2023-03-12T03:31:16.202Z,97683.25
2023-03-12T03:33:42.930Z,97679.44
2023-03-12T03:36:09.722Z,97684.72
2023-03-12T03:38:36.194Z,97680.00
2023-03-12T03:41:02.780Z,97670.63
2023-03-12T03:43:29.283Z,97664.41
2023-03-12T03:45:59.340Z,97675.00
2023-03-12T03:48:25.693Z,97673.47
2023-03-12T03:50:52.252Z,97682.38
2023-03-12T03:53:21.709Z,97675.00
2023-03-12T03:55:48.483Z,97673.03
2023-03-12T03:58:15.051Z,97667.28
2023-03-12T04:00:41.537Z,97661.00
2023-03-12T04:03:08.082Z,97661.44
2023-03-12T04:05:34.732Z,97660.44
2023-03-12T04:08:03.159Z,97658.47
2023-03-12T04:10:29.948Z,97659.34
2023-03-12T04:12:56.442Z,97657.63
2023-03-12T04:15:22.942Z,97655.00
2023-03-12T04:17:49.443Z,97662.34
2023-03-12T04:20:16.026Z,97651.28
2023-03-12T04:22:42.535Z,97650.00
2023-03-12T04:25:09.214Z,97652.31
2023-03-12T04:27:35.719Z,97647.84
2023-03-12T04:30:02.235Z,97654.00
2023-03-12T04:32:28.729Z,97649.16
2023-03-12T04:34:55.299Z,97641.22
2023-03-12T04:37:21.812Z,97639.78
2023-03-12T04:39:48.284Z,97636.66
2023-03-12T04:42:14.761Z,97649.91
2023-03-12T04:44:41.587Z,97635.50
2023-03-12T04:47:08.084Z,97632.03
2023-03-12T04:49:34.553Z,97631.16
2023-03-12T04:52:01.019Z,97636.00
2023-03-12T04:54:28.098Z,97633.66
2023-03-12T04:56:54.561Z,97624.91
2023-03-12T04:59:21.045Z,97629.22
2023-03-12T05:01:47.744Z,97624.44
2023-03-12T05:04:14.382Z,97627.09
2023-03-12T05:06:41.019Z,97622.75
2023-03-12T05:09:07.667Z,97619.50
2023-03-12T05:11:34.136Z,97623.03
2023-03-12T05:14:00.607Z,97622.16
2023-03-12T05:16:27.824Z,97615.66
2023-03-12T05:18:54.417Z,97620.53
2023-03-12T05:21:21.154Z,97615.91
2023-03-12T05:23:47.878Z,97613.25
2023-03-12T05:26:27.966Z,97630.34
2023-03-12T05:28:54.298Z,97620.84
2023-03-12T05:31:20.903Z,97623.28
2023-03-12T05:33:47.437Z,97622.19
2023-03-12T05:36:14.021Z,97615.16
2023-03-12T05:38:40.567Z,97608.56
2023-03-12T05:41:07.039Z,97603.69
2023-03-12T05:43:34.262Z,97601.78
2023-03-12T05:46:04.056Z,97605.47
2023-03-12T05:48:30.993Z,97599.53
2023-03-12T05:50:57.617Z,97597.91
2023-03-12T05:53:24.392Z,97589.28
2023-03-12T05:55:50.868Z,97595.91
2023-03-12T05:58:17.405Z,97590.69
2023-03-12T06:00:44.347Z,97593.91
2023-03-12T06:03:11.019Z,97593.25
2023-03-12T06:05:37.650Z,97582.78
2023-03-12T06:08:04.600Z,97579.78
2023-03-12T06:10:31.414Z,97574.63
2023-03-12T06:12:58.013Z,97565.03
2023-03-12T06:15:24.507Z,97566.97
2023-03-12T06:17:50.978Z,97563.50
2023-03-12T06:20:17.573Z,97565.19
2023-03-12T06:22:44.028Z,97558.16
2023-03-12T06:25:10.501Z,97562.22
2023-03-12T06:27:37.220Z,97560.28
2023-03-12T06:30:04.683Z,97549.91
2023-03-12T06:32:31.236Z,97544.38
2023-03-12T06:35:00.553Z,97552.22
2023-03-12T06:37:27.818Z,97557.59
2023-03-12T06:39:54.359Z,97548.25
2023-03-12T06:42:22.467Z,97555.81
2023-03-12T06:44:49.939Z,97554.13
2023-03-12T06:47:17.691Z,97542.59
2023-03-12T06:49:44.345Z,97545.81
2023-03-12T06:52:10.826Z,97533.13
2023-03-12T06:54:37.288Z,97538.59
2023-03-12T06:57:04.614Z,97534.94
2023-03-12T06:59:31.074Z,97534.75
2023-03-12T07:01:57.569Z,97528.47
2023-03-12T07:04:24.057Z,97518.09
2023-03-12T07:06:51.308Z,97524.94
2023-03-12T07:09:18.534Z,97525.06
2023-03-12T07:11:45.282Z,97521.19
2023-03-12T07:14:11.841Z,97528.69
2023-03-12T07:16:38.314Z,97525.66
2023-03-12T07:19:05.108Z,97538.41
2023-03-12T07:21:31.685Z,97533.94
2023-03-12T07:23:58.268Z,97526.66
2023-03-12T07:26:24.758Z,97526.03
2023-03-12T07:28:51.213Z,97519.56
2023-03-12T07:31:17.727Z,97527.75
2023-03-12T07:33:44.428Z,97527.63
2023-03-12T07:36:11.149Z,97531.88
2023-03-12T07:38:37.654Z,97537.66
2023-03-12T07:41:04.193Z,97531.06
2023-03-12T07:43:30.719Z,97533.50
2023-03-12T07:45:57.282Z,97522.88
2023-03-12T07:48:25.103Z,97516.94
2023-03-12T07:50:52.253Z,97519.75
2023-03-12T07:53:18.782Z,97513.19
2023-03-12T07:55:46.303Z,97518.34
2023-03-12T07:58:13.429Z,97518.22
2023-03-12T08:00:40.030Z,97521.63
2023-03-12T08:03:06.652Z,97517.59
2023-03-12T08:05:33.281Z,97508.59
2023-03-12T08:07:59.758Z,97497.66
2023-03-12T08:10:26.291Z,97503.00
2023-03-12T08:12:52.899Z,97496.97
2023-03-12T08:15:20.227Z,97498.47
2023-03-12T08:17:46.720Z,97495.84
2023-03-12T08:20:13.529Z,97503.03
2023-03-12T08:22:40.084Z,97498.38
2023-03-12T08:25:06.923Z,97495.16
2023-03-12T08:27:33.961Z,97489.38
2023-03-12T08:30:00.478Z,97484.94
2023-03-12T08:32:27.105Z,97485.06
2023-03-12T08:34:53.630Z,97486.19
2023-03-12T08:37:20.141Z,97479.22
2023-03-12T08:39:47.359Z,97466.88
2023-03-12T08:42:13.834Z,97481.22
2023-03-12T08:44:40.316Z,97477.53
2023-03-12T08:47:06.806Z,97468.09
2023-03-12T08:49:33.278Z,97466.44
2023-03-12T08:51:59.778Z,97459.97
2023-03-12T08:54:26.235Z,97475.94
2023-03-12T08:56:52.726Z,97471.09
2023-03-12T08:59:20.614Z,97469.34
2023-03-12T09:01:47.116Z,97463.81
2023-03-12T09:04:13.622Z,97477.22
2023-03-12T09:06:41.088Z,97477.97
2023-03-12T09:09:09.040Z,97481.41
2023-03-12T09:11:36.225Z,97482.47
2023-03-12T09:16:49.689Z,97470.88
2023-03-12T09:19:16.262Z,97473.69
2023-03-12T09:21:42.774Z,97496.66
2023-03-12T09:24:10.048Z,97487.28
2023-03-12T09:26:36.521Z,97491.75
2023-03-12T09:29:03.011Z,97494.94
2023-03-12T09:31:29.518Z,97489.78
2023-03-12T09:33:56.053Z,97493.31
2023-03-12T09:36:22.528Z,97490.72
2023-03-12T09:38:49.000Z,97481.22
2023-03-12T09:41:20.693Z,97484.34
2023-03-12T09:43:57.497Z,97478.69
2023-03-12T09:46:26.753Z,97475.38
2023-03-12T09:48:53.388Z,97469.41
2023-03-12T09:51:28.835Z,97467.19
2023-03-12T09:53:57.146Z,97469.81
2023-03-12T09:56:23.756Z,97470.00
2023-03-12T09:58:51.538Z,97468.25
2023-03-12T10:01:30.016Z,97464.53
2023-03-12T10:04:05.341Z,97464.16
2023-03-12T10:06:38.927Z,97464.91
2023-03-12T10:09:14.565Z,97451.28
2023-03-12T10:11:59.829Z,97445.31
2023-03-12T10:14:43.410Z,97434.59
2023-03-12T10:17:31.876Z,97450.19
2023-03-12T10:20:21.286Z,97435.84
2023-03-12T10:23:05.551Z,97424.91
2023-03-12T10:25:54.434Z,97434.16
2023-03-12T10:28:34.111Z,97422.47
2023-03-12T10:31:06.454Z,97420.34
2023-03-12T10:33:43.250Z,97420.19
2023-03-12T10:36:21.061Z,97418.63
2023-03-12T10:38:49.360Z,97412.13
2023-03-12T10:41:18.284Z,97414.22
2023-03-12T10:43:44.828Z,97400.38
2023-03-12T10:46:14.251Z,97403.78
2023-03-12T10:48:41.098Z,97407.47
2023-03-12T10:51:09.280Z,97399.25
2023-03-12T10:53:44.893Z,97401.81
2023-03-12T10:56:12.987Z,97408.16
2023-03-12T10:58:41.617Z,97403.34
2023-03-12T11:01:23.298Z,97414.84
2023-03-12T11:03:51.188Z,97409.69
2023-03-12T11:06:25.606Z,97403.38
2023-03-12T11:09:18.182Z,97407.78
2023-03-12T11:11:48.438Z,97406.28
2023-03-12T11:14:25.832Z,97393.38
2023-03-12T11:16:52.778Z,97397.03
2023-03-12T11:19:34.423Z,97388.22
2023-03-12T11:22:08.105Z,97398.66
2023-03-12T11:24:34.737Z,97385.31
2023-03-12T11:27:25.461Z,97376.59
2023-03-12T11:29:52.010Z,97389.31
2023-03-12T11:32:38.739Z,97413.84
2023-03-12T11:35:10.202Z,97420.63
2023-03-12T11:37:52.861Z,97403.84
2023-03-12T11:40:35.583Z,97402.81
2023-03-12T11:43:43.874Z,97392.06
2023-03-12T11:46:30.740Z,97388.22
2023-03-12T11:49:21.698Z,97395.13
2023-03-12T11:51:57.224Z,97387.22
2023-03-12T11:54:53.417Z,97401.19
2023-03-12T11:57:28.635Z,97405.34
2023-03-12T12:00:21.310Z,97403.22
2023-03-12T12:03:20.344Z,97405.44
2023-03-12T12:06:27.450Z,97406.22
2023-03-12T12:08:57.227Z,97391.88
2023-03-12T12:11:46.946Z,97399.63
2023-03-12T12:14:31.635Z,97397.88
2023-03-12T12:17:19.409Z,97390.28
2023-03-12T12:19:54.948Z,97389.34
2023-03-12T12:22:43.237Z,97384.81
2023-03-12T12:25:25.797Z,97380.16
2023-03-12T12:28:09.023Z,97385.97
2023-03-12T12:31:09.559Z,97381.16
2023-03-12T12:34:01.361Z,97377.59
2023-03-12T12:36:28.485Z,97381.13
2023-03-12T12:39:01.596Z,97378.72
2023-03-12T12:41:30.427Z,97393.69
2023-03-12T12:44:02.448Z,97377.28
2023-03-12T12:46:36.984Z,97385.63
2023-03-12T12:49:10.136Z,97382.78
2023-03-12T12:51:39.045Z,97382.66
2023-03-12T12:54:41.021Z,97393.94
2023-03-12T12:57:29.566Z,97390.06
2023-03-12T13:00:06.351Z,97387.00
2023-03-12T13:02:34.047Z,97379.66
2023-03-12T13:05:01.093Z,97390.78
2023-03-12T13:07:28.184Z,97383.53
2023-03-12T13:09:56.061Z,97390.59
2023-03-12T13:12:25.371Z,97391.72
2023-03-12T13:14:52.732Z,97397.56
2023-03-12T13:17:23.216Z,97387.25
2023-03-12T13:19:55.545Z,97388.88
2023-03-12T13:22:37.562Z,97382.28
2023-03-12T13:25:19.904Z,97386.13
2023-03-12T13:27:46.384Z,97384.22
2023-03-12T13:30:45.573Z,97378.59
2023-03-12T13:33:14.857Z,97385.88
2023-03-12T13:35:41.380Z,97381.03
2023-03-12T13:38:12.505Z,97387.63
2023-03-12T13:40:53.420Z,97386.50
2023-03-12T13:43:38.026Z,97393.78
2023-03-12T13:46:16.667Z,97393.94
2023-03-12T13:48:46.924Z,97385.75
2023-03-12T13:51:17.364Z,97393.81
2023-03-12T13:53:47.014Z,97392.38
2023-03-12T13:56:14.657Z,97389.31
2023-03-12T13:58:48.188Z,97382.09
2023-03-12T14:01:17.571Z,97388.53
2023-03-12T14:03:48.035Z,97379.69
2023-03-12T14:06:14.987Z,97385.16
2023-03-12T14:08:51.042Z,97388.69
2023-03-12T14:11:44.970Z,97381.94
2023-03-12T14:14:38.458Z,97390.00
2023-03-12T14:17:05.931Z,97390.31
2023-03-12T14:19:35.687Z,97394.03
2023-03-12T14:22:04.575Z,97385.66
2023-03-12T14:24:35.741Z,97374.38
2023-03-12T14:27:02.853Z,97374.38
2023-03-12T14:29:36.820Z,97376.00
2023-03-12T14:32:11.104Z,97374.09
2023-03-12T14:34:42.575Z,97379.56
2023-03-12T14:37:20.405Z,97387.44
2023-03-12T14:39:55.768Z,97405.16
2023-03-12T14:42:26.095Z,97410.94
2023-03-12T14:45:12.143Z,97414.66
2023-03-12T14:47:46.021Z,97419.81
2023-03-12T14:50:29.648Z,97409.34
2023-03-12T14:53:12.080Z,97419.19
2023-03-12T14:55:38.582Z,97414.50
2023-03-12T14:58:06.141Z,97413.34
2023-03-12T15:00:32.656Z,97418.38
2023-03-12T15:02:59.820Z,97428.03
2023-03-12T15:05:26.780Z,97425.94
2023-03-12T15:07:55.880Z,97428.22
2023-03-12T15:10:24.188Z,97417.56
2023-03-12T15:12:51.578Z,97412.91
2023-03-12T15:15:41.612Z,97411.78
2023-03-12T15:18:16.165Z,97412.09
2023-03-12T15:20:42.746Z,97405.47
2023-03-12T15:23:10.182Z,97412.06
2023-03-12T15:25:36.722Z,97407.09
2023-03-12T15:28:07.204Z,97404.53
2023-03-12T15:30:34.472Z,97410.47
2023-03-12T15:33:13.992Z,97412.72
2023-03-12T15:36:01.750Z,97406.78
2023-03-12T15:38:28.553Z,97412.72
2023-03-12T15:40:56.175Z,97413.41
2023-03-12T15:43:23.586Z,97405.00
2023-03-12T15:46:00.290Z,97413.69
2023-03-12T15:48:29.075Z,97416.94
2023-03-12T15:50:55.544Z,97414.34
2023-03-12T15:53:23.061Z,97419.19
2023-03-12T15:56:02.694Z,97413.69
2023-03-12T15:58:34.214Z,97408.72
2023-03-12T16:01:08.890Z,97428.66
2023-03-12T16:03:35.481Z,97418.38
2023-03-12T16:06:02.061Z,97435.78
2023-03-12T16:08:44.143Z,97427.06
2023-03-12T16:11:16.683Z,97430.47
2023-03-12T16:13:43.283Z,97430.13
2023-03-12T16:16:12.882Z,97433.03
2023-03-12T16:18:39.789Z,97451.09
2023-03-12T16:21:06.328Z,97438.97
2023-03-12T16:23:32.917Z,97437.34
2023-03-12T16:25:59.724Z,97439.78
2023-03-12T16:28:26.326Z,97435.44
2023-03-12T16:30:52.911Z,97428.50
2023-03-12T16:33:20.868Z,97425.28
2023-03-12T16:35:47.378Z,97431.53
2023-03-12T16:38:14.246Z,97453.47
2023-03-12T16:40:43.620Z,97432.56
2023-03-12T16:43:16.001Z,97437.81
2023-03-12T16:45:43.842Z,97443.13
2023-03-12T16:48:13.122Z,97441.34
2023-03-12T16:50:39.840Z,97437.16
2023-03-12T16:53:06.613Z,97439.38
2023-03-12T16:55:53.102Z,97436.63
2023-03-12T16:58:20.674Z,97450.78
2023-03-12T17:00:47.305Z,97449.75
2023-03-12T17:03:36.146Z,97479.47
2023-03-12T17:06:03.351Z,97456.34
2023-03-12T17:08:29.833Z,97457.50
2023-03-12T17:10:56.580Z,97469.09
2023-03-12T17:13:27.392Z,97465.72
2023-03-12T17:15:53.936Z,97467.31
2023-03-12T17:18:20.683Z,97473.69
2023-03-12T17:20:48.059Z,97479.50
2023-03-12T17:23:14.515Z,97477.72
2023-03-12T17:25:42.621Z,97496.28
2023-03-12T17:28:09.152Z,97498.34
2023-03-12T17:30:35.856Z,97493.66
2023-03-12T17:33:10.713Z,97494.22
2023-03-12T17:35:37.221Z,97493.81
2023-03-12T17:38:03.808Z,97498.66
2023-03-12T17:40:30.270Z,97502.41
2023-03-12T17:42:56.790Z,97500.19
2023-03-12T17:45:23.490Z,97508.66
2023-03-12T17:47:49.974Z,97507.94
2023-03-12T17:50:17.220Z,97512.63
2023-03-12T17:52:43.691Z,97513.94
2023-03-12T17:55:11.736Z,97517.00
2023-03-12T17:57:38.571Z,97515.22
2023-03-12T18:00:11.744Z,97516.50
2023-03-12T18:02:39.257Z,97506.31
2023-03-12T18:05:06.550Z,97511.66
2023-03-12T18:07:33.105Z,97508.44
2023-03-12T18:09:59.563Z,97509.72
2023-03-12T18:12:26.196Z,97500.81
2023-03-12T18:14:52.727Z,97507.94
2023-03-12T18:17:19.200Z,97513.75
2023-03-12T18:19:45.669Z,97521.13
2023-03-12T18:22:14.457Z,97524.53
2023-03-12T18:24:41.692Z,97517.88
2023-03-12T18:27:08.311Z,97521.19
2023-03-12T18:29:36.779Z,97518.34
2023-03-12T18:32:03.663Z,97525.72
2023-03-12T18:34:30.192Z,97539.38
2023-03-12T18:36:56.651Z,97533.78
2023-03-12T18:39:23.173Z,97525.22
2023-03-12T18:41:49.629Z,97528.88
2023-03-12T18:44:16.094Z,97537.31
2023-03-12T18:46:42.626Z,97532.59
2023-03-12T18:49:09.278Z,97529.03
2023-03-12T18:51:35.978Z,97532.16
2023-03-12T18:54:02.714Z,97538.41
2023-03-12T18:56:32.724Z,97536.38
2023-03-12T18:58:59.237Z,97536.88
2023-03-12T19:01:26.227Z,97532.09
2023-03-12T19:03:52.761Z,97538.31
2023-03-12T19:06:19.264Z,97537.84
2023-03-12T19:08:45.763Z,97540.81
2023-03-12T19:11:13.560Z,97536.28
2023-03-12T19:13:40.164Z,97552.06
2023-03-12T19:16:10.465Z,97547.28
2023-03-12T19:18:37.442Z,97547.56
2023-03-12T19:21:04.623Z,97559.03
2023-03-12T19:23:31.085Z,97548.50
2023-03-12T19:25:57.575Z,97548.56
2023-03-12T19:28:24.076Z,97546.81
2023-03-12T19:30:50.992Z,97536.78
2023-03-12T19:33:17.556Z,97532.19
2023-03-12T19:35:44.076Z,97535.19
2023-03-12T19:38:10.532Z,97538.09
2023-03-12T19:40:37.005Z,97531.94
2023-03-12T19:43:03.539Z,97542.59
2023-03-12T19:45:30.058Z,97536.09
2023-03-12T19:47:56.564Z,97534.22
2023-03-12T19:50:23.813Z,97527.75
2023-03-12T19:52:50.304Z,97520.31
2023-03-12T19:55:16.776Z,97521.53
2023-03-12T19:57:43.256Z,97521.75
2023-03-12T20:00:12.058Z,97526.28
2023-03-12T20:02:38.969Z,97516.44
2023-03-12T20:05:06.069Z,97510.13
2023-03-12T20:07:32.587Z,97513.84
2023-03-12T20:09:59.172Z,97504.16
2023-03-12T20:12:26.024Z,97500.22
2023-03-12T20:14:52.501Z,97501.75
2023-03-12T20:17:18.983Z,97501.22
2023-03-12T20:19:45.473Z,97513.56
2023-03-12T20:22:11.967Z,97513.25
2023-03-12T20:24:38.442Z,97506.97
2023-03-12T20:27:04.916Z,97509.53
2023-03-12T20:29:31.380Z,97516.84
2023-03-12T20:31:57.969Z,97508.78
2023-03-12T20:34:24.472Z,97505.19
2023-03-12T20:36:50.965Z,97517.25
2023-03-12T20:39:17.478Z,97518.91
2023-03-12T20:41:43.956Z,97515.22
2023-03-12T20:44:10.801Z,97512.75
2023-03-12T20:46:37.296Z,97500.16
2023-03-12T20:49:03.801Z,97497.25
2023-03-12T20:51:30.271Z,97501.38
2023-03-12T20:53:57.263Z,97509.88
2023-03-12T20:56:23.788Z,97493.47
2023-03-12T20:58:50.270Z,97506.84
2023-03-12T21:01:16.774Z,97495.38
2023-03-12T21:03:43.526Z,97485.84
2023-03-12T21:06:10.009Z,97471.94
2023-03-12T21:08:36.470Z,97469.66
2023-03-12T21:11:06.788Z,97459.69
2023-03-12T21:13:33.273Z,97452.06
2023-03-12T21:15:59.789Z,97443.94
2023-03-12T21:18:26.282Z,97435.69
2023-03-12T21:20:52.935Z,97432.66
2023-03-12T21:23:19.486Z,97421.31
2023-03-12T21:25:46.123Z,97408.91
2023-03-12T21:28:12.815Z,97410.59
2023-03-12T21:30:39.332Z,97408.75
2023-03-12T21:33:07.203Z,97402.94
2023-03-12T21:35:33.751Z,97400.41
2023-03-12T21:38:00.638Z,97382.63
2023-03-12T21:40:27.183Z,97381.44
2023-03-12T21:42:53.641Z,97365.97
2023-03-12T21:45:20.506Z,97362.97
2023-03-12T21:47:46.969Z,97349.44
2023-03-12T21:50:13.450Z,97352.75
2023-03-12T21:52:43.278Z,97356.16
2023-03-12T21:55:10.089Z,97348.75
2023-03-12T21:57:36.778Z,97337.03
2023-03-12T22:00:04.255Z,97336.44
2023-03-12T22:02:31.584Z,97329.38
2023-03-12T22:05:01.199Z,97328.91
2023-03-12T22:07:30.924Z,97331.88
2023-03-12T22:09:57.388Z,97334.28
2023-03-12T22:12:23.925Z,97329.78
2023-03-12T22:14:50.404Z,97322.69
2023-03-12T22:17:17.254Z,97312.84
2023-03-12T22:19:43.980Z,97306.38
2023-03-12T22:22:10.978Z,97311.44
2023-03-12T22:24:37.562Z,97292.06
2023-03-12T22:27:10.084Z,97295.25
2023-03-12T22:29:37.336Z,97303.81
2023-03-12T22:32:04.004Z,97297.78
2023-03-12T22:34:30.517Z,97299.09
2023-03-12T22:36:57.282Z,97285.03
2023-03-12T22:39:23.824Z,97278.19
2023-03-12T22:41:53.585Z,97282.31
2023-03-12T22:44:20.125Z,97285.34
2023-03-12T22:46:46.657Z,97279.00
2023-03-12T22:49:13.142Z,97283.59
2023-03-12T22:51:39.668Z,97290.97
2023-03-12T22:54:06.146Z,97289.47
2023-03-12T22:56:32.668Z,97284.63
2023-03-12T22:58:59.226Z,97279.13
2023-03-12T23:01:26.039Z,97290.81
2023-03-12T23:03:52.581Z,97288.53
2023-03-12T23:06:21.410Z,97288.66
2023-03-12T23:08:48.170Z,97281.44
2023-03-12T23:11:14.968Z,97287.19
2023-03-12T23:13:42.374Z,97287.16
2023-03-12T23:16:10.295Z,97285.56
2023-03-12T23:18:36.842Z,97286.81
2023-03-12T23:21:08.536Z,97273.41
2023-03-12T23:23:35.457Z,97283.25
2023-03-12T23:26:02.980Z,97273.19
2023-03-12T23:28:29.694Z,97269.47
2023-03-12T23:30:57.229Z,97268.97
2023-03-12T23:33:24.245Z,97261.28
2023-03-12T23:35:58.689Z,97238.28
2023-03-12T23:38:25.810Z,97215.88
2023-03-12T23:40:52.417Z,97197.63
2023-03-12T23:43:18.902Z,97180.38
2023-03-12T23:45:45.489Z,97187.56
2023-03-12T23:48:12.296Z,97179.47
2023-03-12T23:50:38.801Z,97170.06
2023-03-12T23:53:05.287Z,97183.44
2023-03-12T23:55:31.851Z,97160.66
2023-03-12T23:57:58.605Z,97157.88
